Terminal Aerodrome Forecast
Issued by NWS

Home | Current Version | Previous Version | Text Only | Print | Product List | Glossary On
Versions: 1 2 3 4 5 6 7 8 9 10 11 12 13
479
FTUS45 KRIW 041126
TAFJAC
TAF
KJAC 041126Z 0412/0512 VRB05KT P6SM SCT250
     FM042000 20008KT P6SM SCT100
     FM050200 VRB06KT P6SM FEW080
     FM051000 VRB05KT P6SM SCT080 BKN110
      AMD LTD TO CLD VIS AND WIND=

USA.gov is the U.S. government's official web portal to all federal, state and local government web resources and services.